Terminal Aerodrome Forecast
Issued by NWS Des Moines, IA

Home | Current Version | Previous Version | Text Only | Print | Product List | Glossary On
Versions: 1 2 3 4 5 6 7 8 9 10 11 12 13 14 15 16
000
FTUS43 KDMX 282121 AAA
TAFDSM
TAF AMD
KDSM 282121Z 2821/2918 21017G24KT P6SM SCT030 BKN040
     FM282200 22014G25KT P6SM VCTS BKN025CB
      TEMPO 2822/2901 2SM -TSRA BKN015CB OVC035
     FM290200 21009G15KT P6SM VCTS BKN045CB
     FM290600 21007KT P6SM BKN180=

USA.gov is the U.S. government's official web portal to all federal, state and local government web resources and services.